sensor_id;sensor_type;location;lat;lon;timestamp;P1;durP1;ratioP1;P2;durP2;ratioP2
32228;SDS011;18717;48.034;11.186;2022-09-16T00:01:47;14.05;;;12.65;;
32228;SDS011;18717;48.034;11.186;2022-09-16T00:04:15;13.43;;;12.25;;
32228;SDS011;18717;48.034;11.186;2022-09-16T00:06:43;13.10;;;12.15;;
32228;SDS011;18717;48.034;11.186;2022-09-16T00:09:11;14.23;;;13.10;;
32228;SDS011;18717;48.034;11.186;2022-09-16T00:11:39;13.77;;;12.77;;
32228;SDS011;18717;48.034;11.186;2022-09-16T00:14:06;13.52;;;12.38;;
32228;SDS011;18717;48.034;11.186;2022-09-16T00:16:34;12.65;;;11.85;;
32228;SDS011;18717;48.034;11.186;2022-09-16T00:19:03;13.68;;;12.65;;
32228;SDS011;18717;48.034;11.186;2022-09-16T00:21:31;13.15;;;12.15;;
32228;SDS011;18717;48.034;11.186;2022-09-16T00:23:59;13.00;;;11.88;;
32228;SDS011;18717;48.034;11.186;2022-09-16T00:26:26;12.82;;;11.93;;
32228;SDS011;18717;48.034;11.186;2022-09-16T00:28:55;13.50;;;12.60;;
32228;SDS011;18717;48.034;11.186;2022-09-16T00:31:22;15.63;;;12.27;;
32228;SDS011;18717;48.034;11.186;2022-09-16T00:33:50;12.98;;;11.93;;
32228;SDS011;18717;48.034;11.186;2022-09-16T00:36:19;13.68;;;12.40;;
32228;SDS011;18717;48.034;11.186;2022-09-16T00:38:49;13.48;;;12.30;;
32228;SDS011;18717;48.034;11.186;2022-09-16T00:41:18;13.50;;;12.40;;
32228;SDS011;18717;48.034;11.186;2022-09-16T00:43:47;12.98;;;11.90;;
32228;SDS011;18717;48.034;11.186;2022-09-16T00:46:18;13.10;;;11.95;;
32228;SDS011;18717;48.034;11.186;2022-09-16T00:48:47;13.38;;;12.38;;
32228;SDS011;18717;48.034;11.186;2022-09-16T00:51:16;14.10;;;13.05;;
32228;SDS011;18717;48.034;11.186;2022-09-16T00:53:48;13.98;;;13.07;;
32228;SDS011;18717;48.034;11.186;2022-09-16T00:56:22;13.13;;;11.80;;
32228;SDS011;18717;48.034;11.186;2022-09-16T00:58:53;12.70;;;11.70;;
32228;SDS011;18717;48.034;11.186;2022-09-16T01:01:27;14.05;;;12.93;;
32228;SDS011;18717;48.034;11.186;2022-09-16T01:03:57;13.82;;;12.73;;
32228;SDS011;18717;48.034;11.186;2022-09-16T01:06:26;17.60;;;12.77;;
32228;SDS011;18717;48.034;11.186;2022-09-16T01:08:56;16.65;;;12.77;;
32228;SDS011;18717;48.034;11.186;2022-09-16T01:11:23;14.75;;;13.65;;
32228;SDS011;18717;48.034;11.186;2022-09-16T01:13:52;12.90;;;11.75;;
32228;SDS011;18717;48.034;11.186;2022-09-16T01:16:21;13.95;;;12.85;;
32228;SDS011;18717;48.034;11.186;2022-09-16T01:18:53;13.05;;;12.05;;
32228;SDS011;18717;48.034;11.186;2022-09-16T01:21:27;13.68;;;12.57;;
32228;SDS011;18717;48.034;11.186;2022-09-16T01:30:16;13.65;;;12.23;;
32228;SDS011;18717;48.034;11.186;2022-09-16T01:32:58;13.27;;;12.20;;
32228;SDS011;18717;48.034;11.186;2022-09-16T01:35:43;19.30;;;12.38;;
32228;SDS011;18717;48.034;11.186;2022-09-16T01:38:21;13.05;;;12.07;;
32228;SDS011;18717;48.034;11.186;2022-09-16T01:40:55;18.67;;;13.43;;
32228;SDS011;18717;48.034;11.186;2022-09-16T01:43:25;13.82;;;12.48;;
32228;SDS011;18717;48.034;11.186;2022-09-16T01:45:58;13.73;;;12.52;;
32228;SDS011;18717;48.034;11.186;2022-09-16T01:48:31;13.73;;;12.70;;
32228;SDS011;18717;48.034;11.186;2022-09-16T01:51:02;12.80;;;11.90;;
32228;SDS011;18717;48.034;11.186;2022-09-16T01:56:02;13.90;;;12.20;;
32228;SDS011;18717;48.034;11.186;2022-09-16T01:58:33;14.80;;;13.40;;
32228;SDS011;18717;48.034;11.186;2022-09-16T02:01:06;15.65;;;12.52;;
32228;SDS011;18717;48.034;11.186;2022-09-16T02:03:38;13.98;;;12.65;;
32228;SDS011;18717;48.034;11.186;2022-09-16T02:06:07;14.70;;;13.27;;
32228;SDS011;18717;48.034;11.186;2022-09-16T02:08:39;14.95;;;13.32;;
32228;SDS011;18717;48.034;11.186;2022-09-16T02:13:37;14.70;;;12.93;;
32228;SDS011;18717;48.034;11.186;2022-09-16T02:16:07;14.23;;;12.85;;
32228;SDS011;18717;48.034;11.186;2022-09-16T02:18:39;15.07;;;13.85;;
32228;SDS011;18717;48.034;11.186;2022-09-16T02:21:09;15.13;;;13.73;;
32228;SDS011;18717;48.034;11.186;2022-09-16T02:23:40;14.63;;;13.52;;
32228;SDS011;18717;48.034;11.186;2022-09-16T02:26:10;15.35;;;13.57;;
32228;SDS011;18717;48.034;11.186;2022-09-16T02:28:40;14.60;;;12.88;;
32228;SDS011;18717;48.034;11.186;2022-09-16T02:31:09;14.90;;;13.70;;
32228;SDS011;18717;48.034;11.186;2022-09-16T02:33:40;15.98;;;14.35;;
32228;SDS011;18717;48.034;11.186;2022-09-16T02:36:11;14.82;;;13.52;;
32228;SDS011;18717;48.034;11.186;2022-09-16T02:38:42;14.75;;;13.52;;
32228;SDS011;18717;48.034;11.186;2022-09-16T02:41:10;14.95;;;13.82;;
32228;SDS011;18717;48.034;11.186;2022-09-16T02:43:40;15.35;;;13.95;;
32228;SDS011;18717;48.034;11.186;2022-09-16T02:46:08;15.02;;;13.70;;
32228;SDS011;18717;48.034;11.186;2022-09-16T02:48:41;16.90;;;14.73;;
32228;SDS011;18717;48.034;11.186;2022-09-16T02:51:17;15.95;;;14.32;;
32228;SDS011;18717;48.034;11.186;2022-09-16T02:53:53;14.98;;;13.68;;
32228;SDS011;18717;48.034;11.186;2022-09-16T02:56:23;14.57;;;13.25;;
32228;SDS011;18717;48.034;11.186;2022-09-16T02:58:56;13.93;;;12.63;;
32228;SDS011;18717;48.034;11.186;2022-09-16T03:01:23;14.50;;;13.20;;
32228;SDS011;18717;48.034;11.186;2022-09-16T03:03:54;18.95;;;14.52;;
32228;SDS011;18717;48.034;11.186;2022-09-16T03:06:46;16.08;;;14.57;;
32228;SDS011;18717;48.034;11.186;2022-09-16T03:09:15;14.88;;;13.55;;
32228;SDS011;18717;48.034;11.186;2022-09-16T03:11:47;15.77;;;14.30;;
32228;SDS011;18717;48.034;11.186;2022-09-16T03:15:02;16.95;;;15.18;;
32228;SDS011;18717;48.034;11.186;2022-09-16T03:17:44;16.08;;;14.75;;
32228;SDS011;18717;48.034;11.186;2022-09-16T03:20:19;14.60;;;13.43;;
32228;SDS011;18717;48.034;11.186;2022-09-16T03:22:51;15.40;;;13.77;;
32228;SDS011;18717;48.034;11.186;2022-09-16T03:25:27;16.63;;;14.30;;
32228;SDS011;18717;48.034;11.186;2022-09-16T03:28:01;15.50;;;13.95;;
32228;SDS011;18717;48.034;11.186;2022-09-16T03:30:34;16.42;;;14.57;;
32228;SDS011;18717;48.034;11.186;2022-09-16T03:33:05;22.27;;;13.77;;
32228;SDS011;18717;48.034;11.186;2022-09-16T03:35:37;15.77;;;14.13;;
32228;SDS011;18717;48.034;11.186;2022-09-16T03:40:37;14.73;;;13.38;;
32228;SDS011;18717;48.034;11.186;2022-09-16T03:43:09;15.05;;;13.88;;
32228;SDS011;18717;48.034;11.186;2022-09-16T03:45:38;17.08;;;14.15;;
32228;SDS011;18717;48.034;11.186;2022-09-16T03:48:08;16.40;;;14.70;;
32228;SDS011;18717;48.034;11.186;2022-09-16T03:50:36;21.08;;;14.60;;
32228;SDS011;18717;48.034;11.186;2022-09-16T03:53:03;15.20;;;13.95;;
32228;SDS011;18717;48.034;11.186;2022-09-16T03:55:32;15.07;;;13.68;;
32228;SDS011;18717;48.034;11.186;2022-09-16T03:58:00;15.85;;;14.45;;
32228;SDS011;18717;48.034;11.186;2022-09-16T04:00:28;17.40;;;15.85;;
32228;SDS011;18717;48.034;11.186;2022-09-16T04:02:56;15.60;;;14.27;;
32228;SDS011;18717;48.034;11.186;2022-09-16T04:05:25;16.08;;;14.65;;
32228;SDS011;18717;48.034;11.186;2022-09-16T04:07:53;17.02;;;15.13;;
32228;SDS011;18717;48.034;11.186;2022-09-16T04:10:21;21.58;;;15.10;;
32228;SDS011;18717;48.034;11.186;2022-09-16T04:12:50;16.88;;;15.30;;
32228;SDS011;18717;48.034;11.186;2022-09-16T04:15:23;16.50;;;14.98;;
32228;SDS011;18717;48.034;11.186;2022-09-16T04:17:50;17.25;;;15.60;;
32228;SDS011;18717;48.034;11.186;2022-09-16T04:20:18;16.05;;;14.55;;
32228;SDS011;18717;48.034;11.186;2022-09-16T04:22:46;15.73;;;14.32;;
32228;SDS011;18717;48.034;11.186;2022-09-16T04:25:14;16.08;;;14.45;;
32228;SDS011;18717;48.034;11.186;2022-09-16T04:27:42;18.35;;;16.52;;
32228;SDS011;18717;48.034;11.186;2022-09-16T04:30:12;15.52;;;14.23;;
32228;SDS011;18717;48.034;11.186;2022-09-16T04:32:51;18.90;;;17.00;;
32228;SDS011;18717;48.034;11.186;2022-09-16T04:35:19;27.27;;;17.98;;
32228;SDS011;18717;48.034;11.186;2022-09-16T04:37:47;18.75;;;16.42;;
32228;SDS011;18717;48.034;11.186;2022-09-16T04:40:15;18.20;;;16.23;;
32228;SDS011;18717;48.034;11.186;2022-09-16T04:42:46;18.38;;;16.45;;
32228;SDS011;18717;48.034;11.186;2022-09-16T04:45:16;20.23;;;16.05;;
32228;SDS011;18717;48.034;11.186;2022-09-16T04:47:44;16.83;;;15.30;;
32228;SDS011;18717;48.034;11.186;2022-09-16T04:50:12;18.23;;;16.50;;
32228;SDS011;18717;48.034;11.186;2022-09-16T04:52:40;17.77;;;15.38;;
32228;SDS011;18717;48.034;11.186;2022-09-16T04:55:08;17.33;;;15.80;;
32228;SDS011;18717;48.034;11.186;2022-09-16T04:57:36;16.83;;;14.90;;
32228;SDS011;18717;48.034;11.186;2022-09-16T05:00:04;17.58;;;15.98;;
32228;SDS011;18717;48.034;11.186;2022-09-16T05:02:33;18.30;;;15.32;;
32228;SDS011;18717;48.034;11.186;2022-09-16T05:05:01;15.85;;;14.45;;
32228;SDS011;18717;48.034;11.186;2022-09-16T05:07:29;17.95;;;16.15;;
32228;SDS011;18717;48.034;11.186;2022-09-16T05:09:57;17.75;;;16.02;;
32228;SDS011;18717;48.034;11.186;2022-09-16T05:12:24;17.75;;;15.88;;
32228;SDS011;18717;48.034;11.186;2022-09-16T05:14:52;17.10;;;15.40;;
32228;SDS011;18717;48.034;11.186;2022-09-16T05:17:20;17.80;;;16.20;;
32228;SDS011;18717;48.034;11.186;2022-09-16T05:20:09;16.33;;;14.60;;
32228;SDS011;18717;48.034;11.186;2022-09-16T05:22:37;17.42;;;15.75;;
32228;SDS011;18717;48.034;11.186;2022-09-16T05:25:05;18.25;;;15.32;;
32228;SDS011;18717;48.034;11.186;2022-09-16T05:27:33;19.55;;;15.23;;
32228;SDS011;18717;48.034;11.186;2022-09-16T05:30:01;19.65;;;15.73;;
32228;SDS011;18717;48.034;11.186;2022-09-16T05:32:29;16.83;;;15.25;;
32228;SDS011;18717;48.034;11.186;2022-09-16T05:34:56;20.25;;;16.40;;
32228;SDS011;18717;48.034;11.186;2022-09-16T05:37:25;21.55;;;16.38;;
32228;SDS011;18717;48.034;11.186;2022-09-16T05:39:53;21.13;;;15.57;;
32228;SDS011;18717;48.034;11.186;2022-09-16T05:42:22;16.75;;;15.05;;
32228;SDS011;18717;48.034;11.186;2022-09-16T05:44:50;20.65;;;16.48;;
32228;SDS011;18717;48.034;11.186;2022-09-16T05:47:18;18.55;;;16.55;;
32228;SDS011;18717;48.034;11.186;2022-09-16T05:49:45;16.70;;;15.10;;
32228;SDS011;18717;48.034;11.186;2022-09-16T05:52:13;18.52;;;16.77;;
32228;SDS011;18717;48.034;11.186;2022-09-16T05:54:42;17.52;;;15.60;;
32228;SDS011;18717;48.034;11.186;2022-09-16T05:57:10;18.98;;;16.98;;
32228;SDS011;18717;48.034;11.186;2022-09-16T05:59:39;19.38;;;15.45;;
32228;SDS011;18717;48.034;11.186;2022-09-16T06:02:07;20.65;;;16.65;;
32228;SDS011;18717;48.034;11.186;2022-09-16T06:04:37;19.38;;;17.48;;
32228;SDS011;18717;48.034;11.186;2022-09-16T06:07:05;17.75;;;16.05;;
32228;SDS011;18717;48.034;11.186;2022-09-16T06:09:33;19.38;;;17.38;;
32228;SDS011;18717;48.034;11.186;2022-09-16T06:12:02;18.10;;;16.40;;
32228;SDS011;18717;48.034;11.186;2022-09-16T06:14:30;18.60;;;16.60;;
32228;SDS011;18717;48.034;11.186;2022-09-16T06:16:58;21.88;;;17.25;;
32228;SDS011;18717;48.034;11.186;2022-09-16T06:19:25;21.60;;;17.48;;
32228;SDS011;18717;48.034;11.186;2022-09-16T06:21:53;18.70;;;15.80;;
32228;SDS011;18717;48.034;11.186;2022-09-16T06:24:21;19.88;;;15.45;;
32228;SDS011;18717;48.034;11.186;2022-09-16T06:26:49;17.38;;;15.57;;
32228;SDS011;18717;48.034;11.186;2022-09-16T06:29:18;18.58;;;16.67;;
32228;SDS011;18717;48.034;11.186;2022-09-16T06:31:46;24.05;;;15.65;;
32228;SDS011;18717;48.034;11.186;2022-09-16T06:34:14;18.42;;;15.38;;
32228;SDS011;18717;48.034;11.186;2022-09-16T06:36:44;18.13;;;15.82;;
32228;SDS011;18717;48.034;11.186;2022-09-16T06:39:12;18.00;;;15.65;;
32228;SDS011;18717;48.034;11.186;2022-09-16T06:41:41;18.60;;;16.40;;
32228;SDS011;18717;48.034;11.186;2022-09-16T06:44:09;17.70;;;16.10;;
32228;SDS011;18717;48.034;11.186;2022-09-16T06:46:39;19.23;;;17.13;;
32228;SDS011;18717;48.034;11.186;2022-09-16T06:49:07;18.13;;;16.30;;
32228;SDS011;18717;48.034;11.186;2022-09-16T06:51:36;17.38;;;15.70;;
32228;SDS011;18717;48.034;11.186;2022-09-16T06:54:05;22.58;;;19.20;;
32228;SDS011;18717;48.034;11.186;2022-09-16T06:56:34;18.77;;;16.77;;
32228;SDS011;18717;48.034;11.186;2022-09-16T06:59:04;19.63;;;17.77;;
32228;SDS011;18717;48.034;11.186;2022-09-16T07:01:33;18.85;;;17.15;;
32228;SDS011;18717;48.034;11.186;2022-09-16T07:04:03;18.27;;;16.40;;
32228;SDS011;18717;48.034;11.186;2022-09-16T07:06:32;18.38;;;16.58;;
32228;SDS011;18717;48.034;11.186;2022-09-16T07:09:21;18.08;;;16.27;;
32228;SDS011;18717;48.034;11.186;2022-09-16T07:11:49;19.80;;;17.83;;
32228;SDS011;18717;48.034;11.186;2022-09-16T07:14:17;20.35;;;17.23;;
32228;SDS011;18717;48.034;11.186;2022-09-16T07:16:45;23.13;;;17.55;;
32228;SDS011;18717;48.034;11.186;2022-09-16T07:19:14;17.92;;;16.38;;
32228;SDS011;18717;48.034;11.186;2022-09-16T07:21:42;18.88;;;16.17;;
32228;SDS011;18717;48.034;11.186;2022-09-16T07:24:10;18.75;;;17.15;;
32228;SDS011;18717;48.034;11.186;2022-09-16T07:26:39;18.48;;;16.77;;
32228;SDS011;18717;48.034;11.186;2022-09-16T07:29:09;18.33;;;16.48;;
32228;SDS011;18717;48.034;11.186;2022-09-16T07:31:38;19.08;;;17.13;;
32228;SDS011;18717;48.034;11.186;2022-09-16T07:34:07;18.35;;;16.63;;
32228;SDS011;18717;48.034;11.186;2022-09-16T07:36:39;21.00;;;16.40;;
32228;SDS011;18717;48.034;11.186;2022-09-16T07:39:08;17.98;;;16.02;;
32228;SDS011;18717;48.034;11.186;2022-09-16T07:41:37;18.67;;;16.67;;
32228;SDS011;18717;48.034;11.186;2022-09-16T07:44:06;18.95;;;17.05;;
32228;SDS011;18717;48.034;11.186;2022-09-16T07:46:35;20.50;;;15.30;;
32228;SDS011;18717;48.034;11.186;2022-09-16T07:49:04;19.20;;;17.13;;
32228;SDS011;18717;48.034;11.186;2022-09-16T07:51:33;17.05;;;15.50;;
32228;SDS011;18717;48.034;11.186;2022-09-16T07:54:06;24.20;;;17.48;;
32228;SDS011;18717;48.034;11.186;2022-09-16T07:56:37;18.58;;;16.70;;
32228;SDS011;18717;48.034;11.186;2022-09-16T07:59:06;35.80;;;23.25;;
32228;SDS011;18717;48.034;11.186;2022-09-16T08:01:42;39.40;;;25.33;;
32228;SDS011;18717;48.034;11.186;2022-09-16T08:04:10;35.47;;;23.95;;
32228;SDS011;18717;48.034;11.186;2022-09-16T08:06:38;33.45;;;20.10;;
32228;SDS011;18717;48.034;11.186;2022-09-16T08:09:08;52.65;;;28.52;;
32228;SDS011;18717;48.034;11.186;2022-09-16T08:11:56;33.85;;;22.33;;
32228;SDS011;18717;48.034;11.186;2022-09-16T08:14:24;19.17;;;17.42;;
32228;SDS011;18717;48.034;11.186;2022-09-16T08:16:52;18.90;;;17.20;;
32228;SDS011;18717;48.034;11.186;2022-09-16T08:19:20;18.48;;;16.80;;
32228;SDS011;18717;48.034;11.186;2022-09-16T08:21:48;16.85;;;15.32;;
32228;SDS011;18717;48.034;11.186;2022-09-16T08:24:17;16.15;;;14.50;;
32228;SDS011;18717;48.034;11.186;2022-09-16T08:26:45;17.08;;;15.48;;
32228;SDS011;18717;48.034;11.186;2022-09-16T08:29:13;17.38;;;15.70;;
32228;SDS011;18717;48.034;11.186;2022-09-16T08:31:41;18.92;;;15.90;;
32228;SDS011;18717;48.034;11.186;2022-09-16T08:34:09;18.60;;;17.00;;
32228;SDS011;18717;48.034;11.186;2022-09-16T08:36:37;18.10;;;16.27;;
32228;SDS011;18717;48.034;11.186;2022-09-16T08:39:05;17.75;;;16.20;;
32228;SDS011;18717;48.034;11.186;2022-09-16T08:41:43;17.77;;;15.90;;
32228;SDS011;18717;48.034;11.186;2022-09-16T08:44:19;17.85;;;16.00;;
32228;SDS011;18717;48.034;11.186;2022-09-16T08:46:54;17.48;;;15.88;;
32228;SDS011;18717;48.034;11.186;2022-09-16T08:49:28;16.08;;;14.68;;
32228;SDS011;18717;48.034;11.186;2022-09-16T08:51:59;18.35;;;16.50;;
32228;SDS011;18717;48.034;11.186;2022-09-16T08:54:30;18.38;;;16.63;;
32228;SDS011;18717;48.034;11.186;2022-09-16T08:57:02;17.65;;;16.15;;
32228;SDS011;18717;48.034;11.186;2022-09-16T08:59:33;18.67;;;16.95;;
32228;SDS011;18717;48.034;11.186;2022-09-16T09:02:09;19.15;;;17.35;;
32228;SDS011;18717;48.034;11.186;2022-09-16T09:04:46;18.92;;;17.17;;
32228;SDS011;18717;48.034;11.186;2022-09-16T09:07:16;17.40;;;15.70;;
32228;SDS011;18717;48.034;11.186;2022-09-16T09:09:53;18.33;;;16.67;;
32228;SDS011;18717;48.034;11.186;2022-09-16T09:12:29;18.35;;;16.65;;
32228;SDS011;18717;48.034;11.186;2022-09-16T09:15:06;17.17;;;15.65;;
32228;SDS011;18717;48.034;11.186;2022-09-16T09:17:44;20.15;;;18.30;;
32228;SDS011;18717;48.034;11.186;2022-09-16T09:20:26;20.15;;;18.10;;
32228;SDS011;18717;48.034;11.186;2022-09-16T09:23:04;17.15;;;15.65;;
32228;SDS011;18717;48.034;11.186;2022-09-16T09:25:38;18.05;;;16.25;;
32228;SDS011;18717;48.034;11.186;2022-09-16T09:28:16;17.83;;;16.23;;
32228;SDS011;18717;48.034;11.186;2022-09-16T09:30:52;20.80;;;17.77;;
32228;SDS011;18717;48.034;11.186;2022-09-16T09:33:24;17.35;;;15.73;;
32228;SDS011;18717;48.034;11.186;2022-09-16T09:36:17;18.63;;;16.08;;
32228;SDS011;18717;48.034;11.186;2022-09-16T09:39:02;17.27;;;15.52;;
32228;SDS011;18717;48.034;11.186;2022-09-16T09:41:37;17.58;;;16.15;;
32228;SDS011;18717;48.034;11.186;2022-09-16T09:44:13;17.92;;;16.40;;
32228;SDS011;18717;48.034;11.186;2022-09-16T09:46:59;18.02;;;16.02;;
32228;SDS011;18717;48.034;11.186;2022-09-16T09:49:30;18.63;;;16.98;;
32228;SDS011;18717;48.034;11.186;2022-09-16T09:52:01;16.58;;;15.10;;
32228;SDS011;18717;48.034;11.186;2022-09-16T09:54:34;17.40;;;15.70;;
32228;SDS011;18717;48.034;11.186;2022-09-16T09:57:04;17.30;;;15.68;;
32228;SDS011;18717;48.034;11.186;2022-09-16T09:59:37;17.92;;;16.08;;
32228;SDS011;18717;48.034;11.186;2022-09-16T10:02:12;17.77;;;16.17;;
32228;SDS011;18717;48.034;11.186;2022-09-16T10:04:42;19.08;;;17.40;;
32228;SDS011;18717;48.034;11.186;2022-09-16T10:07:10;17.02;;;15.35;;
32228;SDS011;18717;48.034;11.186;2022-09-16T10:09:44;19.55;;;16.30;;
32228;SDS011;18717;48.034;11.186;2022-09-16T10:12:24;17.83;;;15.93;;
32228;SDS011;18717;48.034;11.186;2022-09-16T10:14:56;21.58;;;15.82;;
32228;SDS011;18717;48.034;11.186;2022-09-16T10:17:26;16.92;;;15.27;;
32228;SDS011;18717;48.034;11.186;2022-09-16T10:19:57;16.98;;;15.38;;
32228;SDS011;18717;48.034;11.186;2022-09-16T10:22:27;17.70;;;16.08;;
32228;SDS011;18717;48.034;11.186;2022-09-16T10:24:56;17.98;;;16.40;;
32228;SDS011;18717;48.034;11.186;2022-09-16T10:27:26;18.20;;;16.40;;
32228;SDS011;18717;48.034;11.186;2022-09-16T10:30:04;17.65;;;15.88;;
32228;SDS011;18717;48.034;11.186;2022-09-16T10:32:36;16.80;;;15.23;;
32228;SDS011;18717;48.034;11.186;2022-09-16T10:35:14;17.08;;;15.57;;
32228;SDS011;18717;48.034;11.186;2022-09-16T10:40:14;16.20;;;14.80;;
32228;SDS011;18717;48.034;11.186;2022-09-16T10:42:45;17.10;;;15.43;;
32228;SDS011;18717;48.034;11.186;2022-09-16T10:45:15;16.20;;;14.88;;
32228;SDS011;18717;48.034;11.186;2022-09-16T10:47:50;17.08;;;15.68;;
32228;SDS011;18717;48.034;11.186;2022-09-16T10:50:20;16.73;;;14.80;;
32228;SDS011;18717;48.034;11.186;2022-09-16T10:52:48;16.92;;;15.25;;
32228;SDS011;18717;48.034;11.186;2022-09-16T10:55:24;16.85;;;15.23;;
32228;SDS011;18717;48.034;11.186;2022-09-16T10:58:04;15.52;;;14.23;;
32228;SDS011;18717;48.034;11.186;2022-09-16T11:00:36;17.67;;;15.63;;
32228;SDS011;18717;48.034;11.186;2022-09-16T11:03:24;16.05;;;14.65;;
32228;SDS011;18717;48.034;11.186;2022-09-16T11:06:06;16.73;;;14.82;;
32228;SDS011;18717;48.034;11.186;2022-09-16T11:08:48;16.95;;;14.77;;
32228;SDS011;18717;48.034;11.186;2022-09-16T11:11:26;16.80;;;15.25;;
32228;SDS011;18717;48.034;11.186;2022-09-16T11:14:11;16.20;;;14.70;;
32228;SDS011;18717;48.034;11.186;2022-09-16T11:16:49;16.85;;;15.40;;
32228;SDS011;18717;48.034;11.186;2022-09-16T11:19:27;16.08;;;14.52;;
32228;SDS011;18717;48.034;11.186;2022-09-16T11:22:05;16.60;;;15.15;;
32228;SDS011;18717;48.034;11.186;2022-09-16T11:27:38;20.40;;;15.85;;
32228;SDS011;18717;48.034;11.186;2022-09-16T11:30:11;18.63;;;17.02;;
32228;SDS011;18717;48.034;11.186;2022-09-16T11:35:55;15.75;;;14.38;;
32228;SDS011;18717;48.034;11.186;2022-09-16T11:38:33;14.25;;;12.85;;
32228;SDS011;18717;48.034;11.186;2022-09-16T11:41:13;14.43;;;13.32;;
32228;SDS011;18717;48.034;11.186;2022-09-16T11:43:52;13.93;;;12.80;;
32228;SDS011;18717;48.034;11.186;2022-09-16T11:46:31;14.13;;;12.88;;
32228;SDS011;18717;48.034;11.186;2022-09-16T11:49:11;20.80;;;13.07;;
32228;SDS011;18717;48.034;11.186;2022-09-16T11:51:50;13.93;;;12.60;;
32228;SDS011;18717;48.034;11.186;2022-09-16T11:54:28;14.93;;;13.40;;
32228;SDS011;18717;48.034;11.186;2022-09-16T11:57:04;13.70;;;12.60;;
32228;SDS011;18717;48.034;11.186;2022-09-16T11:59:41;13.00;;;11.82;;
32228;SDS011;18717;48.034;11.186;2022-09-16T12:02:13;15.27;;;13.88;;
32228;SDS011;18717;48.034;11.186;2022-09-16T12:07:16;14.63;;;13.40;;
32228;SDS011;18717;48.034;11.186;2022-09-16T12:09:52;14.85;;;13.48;;
32228;SDS011;18717;48.034;11.186;2022-09-16T12:12:25;13.80;;;12.60;;
32228;SDS011;18717;48.034;11.186;2022-09-16T12:14:58;14.27;;;12.95;;
32228;SDS011;18717;48.034;11.186;2022-09-16T12:17:32;14.13;;;12.80;;
32228;SDS011;18717;48.034;11.186;2022-09-16T12:20:04;14.13;;;12.90;;
32228;SDS011;18717;48.034;11.186;2022-09-16T12:22:34;14.82;;;13.13;;
32228;SDS011;18717;48.034;11.186;2022-09-16T12:25:10;13.85;;;12.52;;
32228;SDS011;18717;48.034;11.186;2022-09-16T12:27:42;12.57;;;11.57;;
32228;SDS011;18717;48.034;11.186;2022-09-16T12:30:13;12.43;;;11.52;;
32228;SDS011;18717;48.034;11.186;2022-09-16T12:35:19;12.27;;;11.15;;
32228;SDS011;18717;48.034;11.186;2022-09-16T12:37:52;13.32;;;11.45;;
32228;SDS011;18717;48.034;11.186;2022-09-16T12:40:25;13.65;;;12.35;;
32228;SDS011;18717;48.034;11.186;2022-09-16T12:43:04;12.30;;;11.35;;
32228;SDS011;18717;48.034;11.186;2022-09-16T12:45:53;12.90;;;11.75;;
32228;SDS011;18717;48.034;11.186;2022-09-16T12:48:38;12.73;;;11.68;;
32228;SDS011;18717;48.034;11.186;2022-09-16T12:51:29;11.80;;;11.00;;
32228;SDS011;18717;48.034;11.186;2022-09-16T12:54:11;12.40;;;11.40;;
32228;SDS011;18717;48.034;11.186;2022-09-16T12:57:12;12.25;;;11.13;;
32228;SDS011;18717;48.034;11.186;2022-09-16T12:59:50;13.45;;;11.80;;
32228;SDS011;18717;48.034;11.186;2022-09-16T13:02:26;12.68;;;11.77;;
32228;SDS011;18717;48.034;11.186;2022-09-16T13:04:57;12.05;;;11.05;;
32228;SDS011;18717;48.034;11.186;2022-09-16T13:07:30;11.55;;;10.73;;
32228;SDS011;18717;48.034;11.186;2022-09-16T13:10:00;12.20;;;11.02;;
32228;SDS011;18717;48.034;11.186;2022-09-16T13:12:30;11.13;;;10.32;;
32228;SDS011;18717;48.034;11.186;2022-09-16T13:15:19;11.38;;;10.48;;
32228;SDS011;18717;48.034;11.186;2022-09-16T13:17:52;12.40;;;11.52;;
32228;SDS011;18717;48.034;11.186;2022-09-16T13:20:22;11.63;;;10.75;;
32228;SDS011;18717;48.034;11.186;2022-09-16T13:22:59;12.30;;;11.30;;
32228;SDS011;18717;48.034;11.186;2022-09-16T13:25:31;12.15;;;11.13;;
32228;SDS011;18717;48.034;11.186;2022-09-16T13:28:01;11.95;;;11.18;;
32228;SDS011;18717;48.034;11.186;2022-09-16T13:30:31;12.95;;;11.88;;
32228;SDS011;18717;48.034;11.186;2022-09-16T13:36:11;12.55;;;11.45;;
32228;SDS011;18717;48.034;11.186;2022-09-16T13:38:56;12.10;;;11.27;;
32228;SDS011;18717;48.034;11.186;2022-09-16T13:41:30;11.25;;;10.55;;
32228;SDS011;18717;48.034;11.186;2022-09-16T13:43:59;11.60;;;10.70;;
32228;SDS011;18717;48.034;11.186;2022-09-16T13:46:29;11.68;;;10.98;;
32228;SDS011;18717;48.034;11.186;2022-09-16T13:49:04;11.27;;;10.43;;
32228;SDS011;18717;48.034;11.186;2022-09-16T13:51:39;11.45;;;10.65;;
32228;SDS011;18717;48.034;11.186;2022-09-16T13:54:26;12.23;;;11.23;;
32228;SDS011;18717;48.034;11.186;2022-09-16T13:56:59;11.73;;;10.82;;
32228;SDS011;18717;48.034;11.186;2022-09-16T13:59:48;11.65;;;10.80;;
32228;SDS011;18717;48.034;11.186;2022-09-16T14:02:27;12.30;;;11.32;;
32228;SDS011;18717;48.034;11.186;2022-09-16T14:05:07;13.13;;;12.00;;
32228;SDS011;18717;48.034;11.186;2022-09-16T14:08:01;13.77;;;12.65;;
32228;SDS011;18717;48.034;11.186;2022-09-16T14:11:15;12.68;;;11.77;;
32228;SDS011;18717;48.034;11.186;2022-09-16T14:14:33;12.38;;;11.57;;
32228;SDS011;18717;48.034;11.186;2022-09-16T14:17:43;12.13;;;11.23;;
32228;SDS011;18717;48.034;11.186;2022-09-16T14:20:17;11.75;;;10.88;;
32228;SDS011;18717;48.034;11.186;2022-09-16T14:22:48;11.85;;;10.68;;
32228;SDS011;18717;48.034;11.186;2022-09-16T14:25:28;12.73;;;11.60;;
32228;SDS011;18717;48.034;11.186;2022-09-16T14:28:16;12.77;;;11.77;;
32228;SDS011;18717;48.034;11.186;2022-09-16T14:30:47;13.57;;;12.40;;
32228;SDS011;18717;48.034;11.186;2022-09-16T14:33:21;12.50;;;11.63;;
32228;SDS011;18717;48.034;11.186;2022-09-16T14:35:53;12.07;;;11.27;;
32228;SDS011;18717;48.034;11.186;2022-09-16T14:38:26;13.38;;;12.20;;
32228;SDS011;18717;48.034;11.186;2022-09-16T14:41:12;13.73;;;12.63;;
32228;SDS011;18717;48.034;11.186;2022-09-16T14:43:49;12.75;;;11.65;;
32228;SDS011;18717;48.034;11.186;2022-09-16T14:46:19;13.40;;;12.40;;
32228;SDS011;18717;48.034;11.186;2022-09-16T14:48:47;13.23;;;12.23;;
32228;SDS011;18717;48.034;11.186;2022-09-16T14:51:21;14.30;;;12.15;;
32228;SDS011;18717;48.034;11.186;2022-09-16T15:10:32;12.65;;;11.43;;
32228;SDS011;18717;48.034;11.186;2022-09-16T15:13:22;12.70;;;11.70;;
32228;SDS011;18717;48.034;11.186;2022-09-16T15:15:53;13.77;;;12.25;;
32228;SDS011;18717;48.034;11.186;2022-09-16T15:18:23;14.98;;;13.48;;
32228;SDS011;18717;48.034;11.186;2022-09-16T15:20:58;13.02;;;12.02;;
32228;SDS011;18717;48.034;11.186;2022-09-16T15:23:33;12.82;;;11.57;;
32228;SDS011;18717;48.034;11.186;2022-09-16T15:26:11;12.20;;;11.32;;
32228;SDS011;18717;48.034;11.186;2022-09-16T15:28:54;13.13;;;12.00;;